Preview of NWS' New Version of Forecast
This preview is not operational and should not be used for support decisions.

Terminal Aerodrome Forecast (TAF)

Issued by National Weather Service (NWS)

                            
000
FTUS42 KKEY 171728
TAFEYW
TAF
KEYW 171728Z 1718/1818 09007KT P6SM FEW025 SCT110=

460 
FTUS42 KKEY 171728
TAFEYW
TAF
KEYW 171728Z 1718/1818 09007KT P6SM FEW025 SCT110=